首页
METAR-TAF:

METAR-TAF

机场 :

Perry Stokes Airport

特立尼达, 科羅拉多州, 美国

纬度: 37-16N, 经度: 104-26W, 海拔: 1756米

当前天气观测

该预报发布于46分钟前的03:54 UTC
风速13节,风向南转西南,有时为20节阵风
温度 18°C
湿度 26%
气压 1012 hPa
能見度: 16.1公里
天空无云

METAR: KTAD 250354Z AUTO 20013G20KT 10SM CLR 18/M02 A2989 RMK AO2 PK WND 17027/0306 SLP057 T01831022

时间: 22:40 (04:40 UTC)


TAF: 丢失

超过4000个机场的气象观测和天气预报(METAR&TAF报告)。

可查询的气象台以黄色和红色小点在地图上表示。

将鼠标移到小点上方,可查看气象台名称。

然后点击查看天气观测和预报。

如需切换地图:点击带黑十字的绿色按钮放大地图;点击带横线的绿色按钮缩小地图;或者点击绿色箭头查看邻近地区的地图。


METAR-TAF: